createdAt,value
2023-11-30T00:01:54.077Z,64.01
2023-11-30T00:04:22.904Z,64.18
2023-11-30T00:06:51.449Z,63.90
2023-11-30T00:09:19.746Z,64.03
2023-11-30T00:11:48.225Z,64.39
2023-11-30T00:14:16.382Z,64.57
2023-11-30T00:16:44.644Z,64.51
2023-11-30T00:19:12.702Z,64.77
2023-11-30T00:21:40.889Z,65.18
2023-11-30T00:24:08.950Z,64.79
2023-11-30T00:26:37.151Z,65.14
2023-11-30T00:29:06.541Z,65.20
2023-11-30T00:31:34.690Z,65.10
2023-11-30T00:34:02.851Z,65.16
2023-11-30T00:36:31.133Z,65.44
2023-11-30T00:38:59.411Z,65.82
2023-11-30T00:41:27.647Z,65.63
2023-11-30T00:43:56.040Z,65.91
2023-11-30T00:46:24.796Z,65.89
2023-11-30T00:48:53.280Z,65.77
2023-11-30T00:51:21.458Z,66.23
2023-11-30T00:53:49.799Z,66.52
2023-11-30T00:56:18.139Z,66.48
2023-11-30T00:58:46.674Z,66.46
2023-11-30T01:01:14.810Z,66.94
2023-11-30T01:03:42.943Z,67.19
2023-11-30T01:06:11.320Z,66.79
2023-11-30T01:08:39.515Z,67.09
2023-11-30T01:11:07.873Z,67.05
2023-11-30T01:13:35.921Z,67.53
2023-11-30T01:16:04.966Z,67.09
2023-11-30T01:18:33.910Z,67.48
2023-11-30T01:21:02.464Z,67.27
2023-11-30T01:23:30.641Z,67.31
2023-11-30T01:25:58.907Z,67.09
2023-11-30T01:28:27.156Z,67.31
2023-11-30T01:30:56.040Z,67.47
2023-11-30T01:33:24.181Z,67.18
2023-11-30T01:35:52.769Z,66.99
2023-11-30T01:38:21.663Z,66.48
2023-11-30T01:40:49.927Z,66.38
2023-11-30T01:43:19.596Z,66.61
2023-11-30T01:45:50.344Z,66.51
2023-11-30T01:48:22.147Z,66.62
2023-11-30T01:50:50.732Z,66.35
2023-11-30T01:53:19.240Z,66.17
2023-11-30T01:55:49.087Z,65.99
2023-11-30T01:58:18.051Z,66.25
2023-11-30T02:00:46.165Z,65.96
2023-11-30T02:03:14.760Z,66.08
2023-11-30T02:05:43.575Z,66.14
2023-11-30T02:08:11.999Z,66.28
2023-11-30T02:10:40.494Z,66.47
2023-11-30T02:13:09.253Z,66.46
2023-11-30T02:15:37.495Z,66.50
2023-11-30T02:18:05.845Z,66.50
2023-11-30T02:20:34.016Z,66.78
2023-11-30T02:23:02.303Z,66.99
2023-11-30T02:25:30.317Z,67.02
2023-11-30T02:28:00.072Z,67.10
2023-11-30T02:30:28.358Z,67.00
2023-11-30T02:32:56.861Z,67.01
2023-11-30T02:35:25.790Z,67.17
2023-11-30T02:37:54.169Z,66.95
2023-11-30T02:40:22.429Z,66.95
2023-11-30T02:42:50.493Z,67.19
2023-11-30T02:45:18.825Z,67.30
2023-11-30T02:47:47.313Z,67.24
2023-11-30T02:50:15.889Z,67.59
2023-11-30T02:52:44.533Z,67.55
2023-11-30T02:55:12.571Z,67.59
2023-11-30T02:57:41.693Z,67.77
2023-11-30T03:00:10.781Z,67.91
2023-11-30T03:02:38.857Z,67.78
2023-11-30T03:05:07.318Z,67.62
2023-11-30T03:07:35.482Z,67.67
2023-11-30T03:10:04.276Z,67.87
2023-11-30T03:12:32.458Z,67.75
2023-11-30T03:15:00.904Z,67.81
2023-11-30T03:17:29.369Z,68.14
2023-11-30T03:19:57.768Z,68.59
2023-11-30T03:22:25.831Z,68.80
2023-11-30T03:24:53.994Z,68.56
2023-11-30T03:27:23.773Z,69.10
2023-11-30T03:29:52.202Z,68.98
2023-11-30T03:32:20.531Z,69.14
2023-11-30T03:34:49.357Z,69.34
2023-11-30T03:37:17.640Z,69.47
2023-11-30T03:39:45.965Z,69.54
2023-11-30T03:42:14.197Z,69.41
2023-11-30T03:44:42.667Z,69.48
2023-11-30T03:47:11.015Z,69.45
2023-11-30T03:49:39.196Z,69.57
2023-11-30T03:52:07.711Z,69.39
2023-11-30T03:54:36.116Z,69.47
2023-11-30T03:59:33.088Z,69.34
2023-11-30T04:02:01.217Z,68.79
2023-11-30T04:04:30.564Z,68.93
2023-11-30T04:06:59.116Z,68.89
2023-11-30T04:09:27.373Z,68.69
2023-11-30T04:11:56.067Z,68.53
2023-11-30T04:14:24.116Z,68.39
2023-11-30T04:16:52.470Z,68.48
2023-11-30T04:19:20.570Z,68.06
2023-11-30T04:21:49.103Z,68.16
2023-11-30T04:24:17.515Z,68.04
2023-11-30T04:26:46.036Z,67.97
2023-11-30T04:29:14.030Z,67.77
2023-11-30T04:31:42.330Z,68.00
2023-11-30T04:34:11.120Z,68.16
2023-11-30T04:36:39.125Z,68.38
2023-11-30T04:39:07.567Z,68.09
2023-11-30T04:41:36.527Z,68.28
2023-11-30T04:44:05.779Z,68.11
2023-11-30T04:46:35.015Z,67.84
2023-11-30T04:49:03.110Z,68.08
2023-11-30T04:51:31.704Z,68.39
2023-11-30T04:54:00.195Z,68.42
2023-11-30T04:56:28.847Z,68.50
2023-11-30T04:58:57.046Z,68.64
2023-11-30T05:01:25.501Z,68.46
2023-11-30T05:03:54.417Z,68.58
2023-11-30T05:06:22.794Z,68.59
2023-11-30T05:08:51.233Z,68.47
2023-11-30T05:11:19.635Z,68.46
2023-11-30T05:13:47.890Z,68.77
2023-11-30T05:16:16.152Z,68.73
2023-11-30T05:18:44.473Z,68.96
2023-11-30T05:21:12.744Z,68.86
2023-11-30T05:23:40.882Z,68.73
2023-11-30T05:26:08.880Z,69.44
2023-11-30T05:28:37.156Z,68.97
2023-11-30T05:31:06.070Z,69.45
2023-11-30T05:33:34.239Z,69.77
2023-11-30T05:36:02.770Z,69.84
2023-11-30T05:38:30.759Z,70.30
2023-11-30T05:40:58.988Z,70.32
2023-11-30T05:43:27.121Z,70.60
2023-11-30T05:45:55.292Z,70.86
2023-11-30T05:48:23.686Z,70.77
2023-11-30T05:50:51.984Z,71.23
2023-11-30T05:53:20.167Z,71.19
2023-11-30T05:55:48.288Z,70.95
2023-11-30T05:58:16.477Z,70.93
2023-11-30T06:00:44.984Z,70.99
2023-11-30T06:03:13.412Z,70.97
2023-11-30T06:05:41.744Z,71.22
2023-11-30T06:08:09.977Z,70.91
2023-11-30T06:10:39.178Z,71.22
2023-11-30T06:13:09.110Z,70.84
2023-11-30T06:15:37.721Z,70.95
2023-11-30T06:18:06.156Z,70.70
2023-11-30T06:20:34.438Z,70.71
2023-11-30T06:23:02.833Z,70.22
2023-11-30T06:25:31.071Z,70.27
2023-11-30T06:27:59.341Z,70.21
2023-11-30T06:30:27.701Z,70.14
2023-11-30T06:32:55.996Z,70.04
2023-11-30T06:35:24.401Z,69.97
2023-11-30T06:37:52.661Z,70.08
2023-11-30T06:40:20.891Z,69.92
2023-11-30T06:42:49.196Z,70.38
2023-11-30T06:45:17.868Z,69.96
2023-11-30T06:47:46.418Z,70.04
2023-11-30T06:50:14.840Z,70.15
2023-11-30T06:52:43.174Z,70.03
2023-11-30T06:55:11.274Z,70.06
2023-11-30T06:57:39.930Z,69.80
2023-11-30T07:00:12.508Z,70.25
2023-11-30T07:02:41.139Z,69.82
2023-11-30T07:05:09.582Z,70.21
2023-11-30T07:07:37.935Z,69.92
2023-11-30T07:10:08.464Z,70.05
2023-11-30T07:12:36.902Z,70.30
2023-11-30T07:15:06.270Z,70.13
2023-11-30T07:17:34.815Z,69.77
2023-11-30T07:20:03.034Z,70.15
2023-11-30T07:22:31.715Z,69.83
2023-11-30T07:24:59.990Z,69.85
2023-11-30T07:27:28.261Z,70.15
2023-11-30T07:29:56.801Z,70.12
2023-11-30T07:32:25.173Z,70.21
2023-11-30T07:34:53.920Z,69.96
2023-11-30T07:37:23.392Z,70.32
2023-11-30T07:39:51.515Z,70.49
2023-11-30T07:42:29.329Z,70.63
2023-11-30T07:45:04.083Z,71.06
2023-11-30T07:47:32.563Z,70.67
2023-11-30T07:50:00.899Z,69.82
2023-11-30T07:52:30.364Z,70.12
2023-11-30T07:54:58.711Z,69.36
2023-11-30T07:57:27.052Z,69.28
2023-11-30T07:59:55.346Z,69.07
2023-11-30T08:02:23.536Z,68.68
2023-11-30T08:04:51.848Z,67.92
2023-11-30T08:07:20.878Z,67.09
2023-11-30T08:09:48.973Z,65.99
2023-11-30T08:12:17.188Z,61.74
2023-11-30T08:14:45.752Z,58.77
2023-11-30T08:17:13.956Z,56.97
2023-11-30T08:19:42.237Z,56.82
2023-11-30T08:22:12.481Z,55.70
2023-11-30T08:24:42.317Z,52.54
2023-11-30T08:27:10.328Z,51.27
2023-11-30T08:29:38.312Z,51.38
2023-11-30T08:32:06.981Z,49.09
2023-11-30T08:34:35.356Z,48.55
2023-11-30T08:37:03.717Z,48.63
2023-11-30T08:39:32.198Z,48.58
2023-11-30T08:42:00.242Z,48.60
2023-11-30T08:44:28.624Z,47.65
2023-11-30T08:46:57.167Z,46.20
2023-11-30T08:49:25.534Z,43.07
2023-11-30T08:51:54.303Z,43.24
2023-11-30T08:54:22.668Z,42.77
2023-11-30T08:56:51.385Z,41.00
2023-11-30T08:59:20.352Z,41.21
2023-11-30T09:01:50.066Z,42.05
2023-11-30T09:04:19.027Z,42.15
2023-11-30T09:06:47.181Z,42.21
2023-11-30T09:09:15.638Z,38.76
2023-11-30T09:11:46.018Z,37.52
2023-11-30T09:14:16.623Z,36.19
2023-11-30T09:16:44.637Z,35.91
2023-11-30T09:19:12.887Z,32.99
2023-11-30T09:21:41.255Z,34.49
2023-11-30T09:24:11.278Z,33.81
2023-11-30T09:26:40.423Z,33.98
2023-11-30T09:29:10.071Z,33.24
2023-11-30T09:31:44.938Z,32.11
2023-11-30T09:34:13.332Z,31.43
2023-11-30T09:36:41.865Z,33.71
2023-11-30T09:39:10.348Z,33.30
2023-11-30T09:41:41.507Z,32.52
2023-11-30T09:44:13.381Z,32.05
2023-11-30T09:46:42.454Z,32.18
2023-11-30T09:49:11.296Z,31.87
2023-11-30T09:51:42.862Z,32.33
2023-11-30T09:54:11.257Z,31.46
2023-11-30T09:56:39.631Z,31.75
2023-11-30T09:59:08.103Z,31.54
2023-11-30T10:01:36.671Z,32.87
2023-11-30T10:04:18.334Z,31.68
2023-11-30T10:06:49.703Z,30.90
2023-11-30T10:09:17.995Z,32.12
2023-11-30T10:11:46.183Z,30.58
2023-11-30T10:14:14.302Z,28.90
2023-11-30T10:16:42.616Z,30.12
2023-11-30T10:19:14.543Z,31.18
2023-11-30T10:21:43.338Z,30.19
2023-11-30T10:24:11.511Z,31.03
2023-11-30T10:26:44.700Z,30.28
2023-11-30T10:29:16.993Z,29.14
2023-11-30T10:31:48.513Z,28.71
2023-11-30T10:34:23.015Z,28.59
2023-11-30T10:36:52.589Z,29.48
2023-11-30T10:39:24.602Z,31.04
2023-11-30T10:41:56.186Z,30.49
2023-11-30T10:44:30.346Z,30.59
2023-11-30T10:47:00.797Z,30.32
2023-11-30T10:49:30.223Z,30.29
2023-11-30T10:52:03.794Z,30.46
2023-11-30T10:54:50.979Z,29.42
2023-11-30T10:57:22.453Z,30.55
2023-11-30T10:59:59.010Z,30.18
2023-11-30T11:02:39.182Z,29.85
2023-11-30T11:05:14.942Z,29.01
2023-11-30T11:07:47.356Z,27.76
2023-11-30T11:10:46.745Z,29.06
2023-11-30T11:13:23.418Z,28.98
2023-11-30T11:16:02.316Z,28.53
2023-11-30T11:18:34.551Z,28.77
2023-11-30T11:21:03.202Z,28.82
2023-11-30T11:23:42.727Z,28.56
2023-11-30T11:26:14.928Z,27.19
2023-11-30T11:28:43.082Z,26.96
2023-11-30T11:31:12.211Z,27.30
2023-11-30T11:33:44.172Z,27.26
2023-11-30T11:36:15.234Z,27.47
2023-11-30T11:38:43.888Z,28.51
2023-11-30T11:41:12.035Z,28.97
2023-11-30T11:43:40.418Z,28.79
2023-11-30T11:46:08.656Z,29.07
2023-11-30T11:48:37.255Z,29.04
2023-11-30T11:51:05.931Z,29.79
2023-11-30T11:53:42.647Z,30.29
2023-11-30T11:56:12.368Z,30.67
2023-11-30T11:58:46.770Z,30.97
2023-11-30T12:01:15.083Z,31.62
2023-11-30T12:03:49.261Z,32.09
2023-11-30T12:06:28.930Z,32.50
2023-11-30T12:08:57.565Z,33.17
2023-11-30T12:11:27.127Z,33.37
2023-11-30T12:13:55.799Z,33.73
2023-11-30T12:16:24.168Z,34.00
2023-11-30T12:18:52.650Z,34.61
2023-11-30T12:21:22.881Z,35.10
2023-11-30T12:23:51.247Z,35.43
2023-11-30T12:26:19.410Z,35.80
2023-11-30T12:28:47.882Z,36.08
2023-11-30T12:31:16.479Z,36.17
2023-11-30T12:33:44.987Z,36.35
2023-11-30T12:36:15.370Z,36.35
2023-11-30T12:38:43.795Z,36.55
2023-11-30T12:41:12.102Z,36.76
2023-11-30T12:43:40.260Z,36.80
2023-11-30T12:46:10.650Z,36.84
2023-11-30T12:48:39.339Z,37.02
2023-11-30T12:51:10.597Z,37.32
2023-11-30T12:53:39.940Z,37.56
2023-11-30T12:56:08.648Z,37.77
2023-11-30T12:58:37.490Z,37.87
2023-11-30T13:01:06.409Z,37.94
2023-11-30T13:03:35.102Z,38.12
2023-11-30T13:06:04.893Z,38.40
2023-11-30T13:08:33.387Z,38.27
2023-11-30T13:11:01.727Z,38.68
2023-11-30T13:13:37.909Z,38.92
2023-11-30T13:16:11.097Z,39.07
2023-11-30T13:18:40.290Z,39.32
2023-11-30T13:21:09.297Z,39.37
2023-11-30T13:23:37.525Z,39.92
2023-11-30T13:26:06.112Z,39.95
2023-11-30T13:28:40.151Z,40.38
2023-11-30T13:31:13.799Z,40.61
2023-11-30T13:33:42.103Z,40.87
2023-11-30T13:36:11.058Z,41.27
2023-11-30T13:38:40.126Z,41.71
2023-11-30T13:41:08.947Z,41.88
2023-11-30T13:43:37.319Z,42.21
2023-11-30T13:46:07.380Z,42.46
2023-11-30T13:48:35.860Z,42.55
2023-11-30T13:51:05.135Z,42.42
2023-11-30T13:53:34.289Z,42.78
2023-11-30T13:56:05.970Z,42.94
2023-11-30T13:58:34.268Z,42.76
2023-11-30T14:01:02.777Z,42.80
2023-11-30T14:03:31.672Z,43.19
2023-11-30T14:06:00.587Z,43.37
2023-11-30T14:08:30.204Z,43.37
2023-11-30T14:10:58.556Z,43.30
2023-11-30T14:13:26.960Z,43.67
2023-11-30T14:15:55.386Z,44.30
2023-11-30T14:18:23.981Z,44.63
2023-11-30T14:20:52.393Z,45.15
2023-11-30T14:23:22.325Z,45.44
2023-11-30T14:25:50.903Z,45.86
2023-11-30T14:28:20.209Z,46.41
2023-11-30T14:30:49.025Z,46.77
2023-11-30T14:33:18.075Z,46.93
2023-11-30T14:35:46.653Z,47.45
2023-11-30T14:38:15.108Z,48.24
2023-11-30T14:40:43.818Z,48.76
2023-11-30T14:43:12.514Z,48.98
2023-11-30T14:45:41.109Z,49.18
2023-11-30T14:48:09.868Z,48.94
2023-11-30T14:50:38.106Z,49.10
2023-11-30T14:53:06.714Z,49.58
2023-11-30T14:55:35.214Z,49.24
2023-11-30T14:58:05.000Z,49.73
2023-11-30T15:00:35.257Z,49.92
2023-11-30T15:03:09.922Z,50.15
2023-11-30T15:05:40.286Z,50.48
2023-11-30T15:08:08.944Z,50.77
2023-11-30T15:10:37.172Z,50.71
2023-11-30T15:13:05.717Z,50.90
2023-11-30T15:15:33.976Z,51.02
2023-11-30T15:18:02.465Z,51.51
2023-11-30T15:20:31.209Z,51.87
2023-11-30T15:22:59.636Z,51.73
2023-11-30T15:25:27.977Z,51.54
2023-11-30T15:27:56.323Z,52.01
2023-11-30T15:30:25.931Z,52.32
2023-11-30T15:32:54.493Z,52.49
2023-11-30T15:35:22.786Z,52.92
2023-11-30T15:37:52.996Z,52.91
2023-11-30T15:40:22.598Z,53.24
2023-11-30T15:42:52.522Z,53.35
2023-11-30T15:45:24.977Z,53.90
2023-11-30T15:47:54.432Z,53.91
2023-11-30T15:50:22.954Z,54.13
2023-11-30T15:52:52.450Z,54.58
2023-11-30T15:55:20.901Z,54.95
2023-11-30T15:57:49.857Z,54.85
2023-11-30T16:00:21.390Z,55.13
2023-11-30T16:02:50.501Z,55.19
2023-11-30T16:05:19.213Z,55.34
2023-11-30T16:07:47.392Z,55.61
2023-11-30T16:10:15.909Z,55.69
2023-11-30T16:12:44.315Z,55.48
2023-11-30T16:15:13.037Z,55.67
2023-11-30T16:17:41.598Z,55.79
2023-11-30T16:20:12.001Z,56.31
2023-11-30T16:22:41.985Z,57.64
2023-11-30T16:25:12.693Z,59.00
2023-11-30T16:27:45.178Z,59.39
2023-11-30T16:30:14.335Z,59.12
2023-11-30T16:32:42.885Z,58.91
2023-11-30T16:35:13.632Z,59.42
2023-11-30T16:37:42.047Z,59.79
2023-11-30T16:40:12.085Z,59.50
2023-11-30T16:42:40.420Z,60.11
2023-11-30T16:45:09.314Z,59.84
2023-11-30T16:47:39.562Z,60.61
2023-11-30T16:50:10.069Z,61.11
2023-11-30T16:52:38.666Z,61.08
2023-11-30T16:55:07.876Z,61.89
2023-11-30T16:57:37.324Z,61.89
2023-11-30T17:00:07.538Z,62.52
2023-11-30T17:02:36.383Z,62.80
2023-11-30T17:05:05.274Z,63.74
2023-11-30T17:07:33.508Z,63.45
2023-11-30T17:10:01.776Z,63.36
2023-11-30T17:12:30.354Z,63.69
2023-11-30T17:14:58.940Z,63.79
2023-11-30T17:17:27.405Z,63.95
2023-11-30T17:19:55.843Z,64.01
2023-11-30T17:22:24.253Z,63.80
2023-11-30T17:24:53.746Z,63.51
2023-11-30T17:27:23.423Z,63.68
2023-11-30T17:29:51.803Z,63.59
2023-11-30T17:32:20.145Z,63.32
2023-11-30T17:34:48.967Z,63.26
2023-11-30T17:37:17.772Z,62.95
2023-11-30T17:39:45.930Z,63.05
2023-11-30T17:42:14.415Z,62.78
2023-11-30T17:44:42.771Z,62.74
2023-11-30T17:47:16.439Z,62.46
2023-11-30T17:49:45.628Z,62.29
2023-11-30T17:52:14.664Z,62.64
2023-11-30T17:54:42.971Z,63.34
2023-11-30T17:57:11.341Z,63.64
2023-11-30T17:59:39.846Z,63.30
2023-11-30T18:02:08.257Z,62.87
2023-11-30T18:04:36.447Z,63.03
2023-11-30T18:07:08.731Z,62.95
2023-11-30T18:09:36.947Z,62.88
2023-11-30T18:12:06.704Z,62.98
2023-11-30T18:14:35.104Z,62.98
2023-11-30T18:17:05.804Z,63.29
2023-11-30T18:19:34.083Z,63.68
2023-11-30T18:22:02.278Z,64.19
2023-11-30T18:24:31.717Z,63.96
2023-11-30T18:27:03.860Z,63.82
2023-11-30T18:29:32.607Z,63.49
2023-11-30T18:32:01.773Z,63.42
2023-11-30T18:34:30.097Z,63.46
2023-11-30T18:36:58.576Z,63.35
2023-11-30T18:39:26.994Z,63.26
2023-11-30T18:41:56.480Z,63.52
2023-11-30T18:44:27.284Z,64.23
2023-11-30T18:46:56.502Z,64.78
2023-11-30T18:49:25.640Z,65.52
2023-11-30T18:51:54.030Z,65.91
2023-11-30T18:54:22.314Z,66.26
2023-11-30T18:56:50.957Z,66.24
2023-11-30T18:59:19.280Z,66.43
2023-11-30T19:01:48.780Z,66.19
2023-11-30T19:04:17.637Z,66.28
2023-11-30T19:06:45.965Z,66.07
2023-11-30T19:09:14.512Z,65.78
2023-11-30T19:11:46.730Z,65.48
2023-11-30T19:14:15.065Z,65.46
2023-11-30T19:16:44.960Z,65.12
2023-11-30T19:19:13.669Z,64.69
2023-11-30T19:21:43.575Z,64.51
2023-11-30T19:24:15.339Z,64.24
2023-11-30T19:26:45.133Z,64.47
2023-11-30T19:29:16.660Z,64.07
2023-11-30T19:31:47.117Z,63.76
2023-11-30T19:34:16.158Z,63.39
2023-11-30T19:36:44.374Z,63.37
2023-11-30T19:39:15.039Z,63.52
2023-11-30T19:41:44.127Z,63.95
2023-11-30T19:44:14.472Z,65.19
2023-11-30T19:46:48.331Z,65.72
2023-11-30T19:49:16.717Z,65.68
2023-11-30T19:51:45.071Z,65.93
2023-11-30T19:54:13.498Z,66.41
2023-11-30T19:56:42.454Z,66.76
2023-11-30T19:59:10.809Z,66.96
2023-11-30T20:01:39.041Z,66.69
2023-11-30T20:04:07.594Z,66.75
2023-11-30T20:06:38.070Z,67.02
2023-11-30T20:09:06.421Z,66.99
2023-11-30T20:11:36.159Z,66.87
2023-11-30T20:14:04.930Z,67.12
2023-11-30T20:16:33.500Z,66.83
2023-11-30T20:19:02.120Z,66.54
2023-11-30T20:21:30.580Z,66.24
2023-11-30T20:23:59.439Z,66.16
2023-11-30T20:26:27.744Z,66.00
2023-11-30T20:28:56.123Z,65.84
2023-11-30T20:31:24.589Z,65.86
2023-11-30T20:33:53.046Z,65.74
2023-11-30T20:36:22.822Z,65.57
2023-11-30T20:38:51.865Z,65.85
2023-11-30T20:41:20.175Z,66.09
2023-11-30T20:43:50.381Z,66.43
2023-11-30T20:46:20.749Z,66.48
2023-11-30T20:48:49.992Z,66.63
2023-11-30T20:51:20.000Z,66.54
2023-11-30T20:53:48.460Z,66.77
2023-11-30T20:56:16.626Z,66.92
2023-11-30T20:58:46.834Z,66.96
2023-11-30T21:01:17.363Z,66.69
2023-11-30T21:03:45.878Z,66.62
2023-11-30T21:06:14.399Z,66.65
2023-11-30T21:08:42.722Z,66.59
2023-11-30T21:11:11.716Z,66.28
2023-11-30T21:13:39.853Z,66.11
2023-11-30T21:16:09.265Z,65.96
2023-11-30T21:18:38.114Z,65.77
2023-11-30T21:21:07.367Z,65.69
2023-11-30T21:23:35.548Z,65.26
2023-11-30T21:26:04.405Z,65.10
2023-11-30T21:28:32.585Z,64.90
2023-11-30T21:31:01.181Z,64.84
2023-11-30T21:33:31.233Z,64.65
2023-11-30T21:36:00.602Z,64.36
2023-11-30T21:38:28.861Z,64.23
2023-11-30T21:40:57.506Z,64.02
2023-11-30T21:43:26.588Z,63.89
2023-11-30T21:45:55.171Z,64.01
2023-11-30T21:48:24.032Z,64.05
2023-11-30T21:50:53.268Z,63.97
2023-11-30T21:53:21.950Z,64.00
2023-11-30T21:55:50.234Z,63.90
2023-11-30T21:58:19.842Z,63.84
2023-11-30T22:00:48.408Z,63.83
2023-11-30T22:03:18.716Z,63.87
2023-11-30T22:05:48.680Z,63.95
2023-11-30T22:08:17.198Z,63.82
2023-11-30T22:10:45.952Z,63.97
2023-11-30T22:13:14.598Z,63.74
2023-11-30T22:15:43.379Z,63.71
2023-11-30T22:18:11.647Z,63.54
2023-11-30T22:20:45.012Z,63.51
2023-11-30T22:23:14.484Z,63.42
2023-11-30T22:25:42.638Z,63.48
2023-11-30T22:28:11.067Z,63.37
2023-11-30T22:30:39.863Z,63.57
2023-11-30T22:33:08.549Z,63.66
2023-11-30T22:35:36.762Z,63.64
2023-11-30T22:38:05.079Z,63.77
2023-11-30T22:40:33.548Z,63.55
2023-11-30T22:43:04.290Z,63.33
2023-11-30T22:45:33.466Z,63.06
2023-11-30T22:48:01.800Z,62.92
2023-11-30T22:50:30.307Z,62.59
2023-11-30T22:52:59.002Z,62.54
2023-11-30T22:55:27.618Z,62.13
2023-11-30T22:57:56.132Z,61.65
2023-11-30T23:00:25.644Z,61.60
2023-11-30T23:02:54.638Z,60.75
2023-11-30T23:05:23.623Z,60.61
2023-11-30T23:07:52.234Z,60.44
2023-11-30T23:10:22.312Z,59.92
2023-11-30T23:12:51.511Z,60.03
2023-11-30T23:15:19.838Z,59.85
2023-11-30T23:17:48.453Z,59.96
2023-11-30T23:20:16.970Z,60.08
2023-11-30T23:22:45.136Z,60.29
2023-11-30T23:25:13.731Z,60.37
2023-11-30T23:27:42.169Z,60.40
2023-11-30T23:30:10.837Z,60.12
2023-11-30T23:32:39.106Z,60.05
2023-11-30T23:35:08.513Z,59.77
2023-11-30T23:37:36.746Z,59.93
2023-11-30T23:40:06.255Z,60.02
2023-11-30T23:42:34.551Z,59.97
2023-11-30T23:45:04.607Z,60.17
2023-11-30T23:47:32.969Z,60.25
2023-11-30T23:50:01.387Z,60.33
2023-11-30T23:52:29.686Z,60.40
2023-11-30T23:54:58.030Z,60.67
2023-11-30T23:57:26.291Z,60.95
2023-11-30T23:59:55.351Z,61.24
